Collyer, Kansas
Current Conditions -  °F | °C
As of 1:53 PM on Thursday 30 Oct 2014 (Local Time) from KHLC Reporting Station
Clear Clear  
Wind Chill: 68°   Ceiling: Unl
Heat Index: 68°   Visibility: 10mi
Dew Point: 31°   Wind: 20mph
Humidity: 25%   Direction: 330°NNW
Pressure: 30.23"   Gusts: 29mph
Location:  39.04°N, 100.12°W
Report Text: KHLC 301853Z AUTO 33017G25KT 10SM CLR 20/M01 A3023 RMK AO2 PK WND 31027/1754 RAE53 SLP227 P0000 T02001006
Loading
Personal Weather Stations






























Interactive Weather Map
Tropical Storm Tracking
New forecast layout! Learn more

10-Day Weather Forecast

Advertisements
Track Severe Weather on mobile